sensor_id;sensor_type;location;lat;lon;timestamp;temperature;humidity
25440;DHT22;13365;52.208;5.488;2022-07-03T00:01:39;23.30;86.10
25440;DHT22;13365;52.208;5.488;2022-07-03T00:04:04;23.00;87.20
25440;DHT22;13365;52.208;5.488;2022-07-03T00:06:30;22.90;88.40
25440;DHT22;13365;52.208;5.488;2022-07-03T00:08:57;22.70;88.90
25440;DHT22;13365;52.208;5.488;2022-07-03T00:11:22;22.60;89.10
25440;DHT22;13365;52.208;5.488;2022-07-03T00:13:48;22.80;89.70
25440;DHT22;13365;52.208;5.488;2022-07-03T00:16:14;22.70;89.50
25440;DHT22;13365;52.208;5.488;2022-07-03T00:18:39;22.60;89.10
25440;DHT22;13365;52.208;5.488;2022-07-03T00:21:05;22.70;89.00
25440;DHT22;13365;52.208;5.488;2022-07-03T00:23:38;22.60;88.80
25440;DHT22;13365;52.208;5.488;2022-07-03T00:26:04;22.70;88.60
25440;DHT22;13365;52.208;5.488;2022-07-03T00:28:31;22.70;88.20
25440;DHT22;13365;52.208;5.488;2022-07-03T00:30:57;22.70;88.10
25440;DHT22;13365;52.208;5.488;2022-07-03T00:33:23;22.60;87.90
25440;DHT22;13365;52.208;5.488;2022-07-03T00:35:50;22.40;88.10
25440;DHT22;13365;52.208;5.488;2022-07-03T00:38:17;22.30;89.20
25440;DHT22;13365;52.208;5.488;2022-07-03T00:40:43;22.40;89.70
25440;DHT22;13365;52.208;5.488;2022-07-03T00:43:09;22.40;89.60
25440;DHT22;13365;52.208;5.488;2022-07-03T00:45:35;22.40;89.50
25440;DHT22;13365;52.208;5.488;2022-07-03T00:48:01;22.30;89.20
25440;DHT22;13365;52.208;5.488;2022-07-03T00:50:33;22.10;89.90
25440;DHT22;13365;52.208;5.488;2022-07-03T00:52:59;22.20;90.10
25440;DHT22;13365;52.208;5.488;2022-07-03T00:55:26;22.20;90.20
25440;DHT22;13365;52.208;5.488;2022-07-03T00:57:52;22.20;90.00
25440;DHT22;13365;52.208;5.488;2022-07-03T01:00:19;22.20;89.60
25440;DHT22;13365;52.208;5.488;2022-07-03T01:05:18;22.20;89.70
25440;DHT22;13365;52.208;5.488;2022-07-03T01:12:49;22.00;89.70
25440;DHT22;13365;52.208;5.488;2022-07-03T01:15:29;22.00;89.20
25440;DHT22;13365;52.208;5.488;2022-07-03T01:18:03;22.00;88.90
25440;DHT22;13365;52.208;5.488;2022-07-03T01:20:33;22.00;88.70
25440;DHT22;13365;52.208;5.488;2022-07-03T01:23:02;22.00;88.50
25440;DHT22;13365;52.208;5.488;2022-07-03T01:25:43;21.90;88.40
25440;DHT22;13365;52.208;5.488;2022-07-03T01:30:37;21.90;88.40
25440;DHT22;13365;52.208;5.488;2022-07-03T01:35:39;21.80;88.20
25440;DHT22;13365;52.208;5.488;2022-07-03T01:38:06;21.70;88.10
25440;DHT22;13365;52.208;5.488;2022-07-03T01:40:32;21.70;88.20
25440;DHT22;13365;52.208;5.488;2022-07-03T01:42:58;21.70;88.00
25440;DHT22;13365;52.208;5.488;2022-07-03T01:45:24;21.70;88.00
25440;DHT22;13365;52.208;5.488;2022-07-03T01:47:52;21.60;88.00
25440;DHT22;13365;52.208;5.488;2022-07-03T01:50:18;21.70;88.30
25440;DHT22;13365;52.208;5.488;2022-07-03T01:52:46;21.60;88.20
25440;DHT22;13365;52.208;5.488;2022-07-03T01:55:13;21.60;88.20
25440;DHT22;13365;52.208;5.488;2022-07-03T01:57:43;21.60;88.10
25440;DHT22;13365;52.208;5.488;2022-07-03T02:00:09;21.50;88.40
25440;DHT22;13365;52.208;5.488;2022-07-03T02:02:36;21.50;88.70
25440;DHT22;13365;52.208;5.488;2022-07-03T02:05:15;21.40;88.90
25440;DHT22;13365;52.208;5.488;2022-07-03T02:07:52;21.40;89.10
25440;DHT22;13365;52.208;5.488;2022-07-03T02:10:20;21.30;89.40
25440;DHT22;13365;52.208;5.488;2022-07-03T02:12:48;21.30;89.20
25440;DHT22;13365;52.208;5.488;2022-07-03T02:15:20;21.20;89.30
25440;DHT22;13365;52.208;5.488;2022-07-03T02:17:50;21.10;89.60
25440;DHT22;13365;52.208;5.488;2022-07-03T02:20:17;21.10;89.50
25440;DHT22;13365;52.208;5.488;2022-07-03T02:22:43;21.10;89.60
25440;DHT22;13365;52.208;5.488;2022-07-03T02:25:20;21.20;89.60
25440;DHT22;13365;52.208;5.488;2022-07-03T02:27:47;21.10;89.20
25440;DHT22;13365;52.208;5.488;2022-07-03T02:30:15;21.10;89.00
25440;DHT22;13365;52.208;5.488;2022-07-03T02:32:48;21.10;89.10
25440;DHT22;13365;52.208;5.488;2022-07-03T02:35:17;21.10;89.30
25440;DHT22;13365;52.208;5.488;2022-07-03T02:37:51;21.00;89.20
25440;DHT22;13365;52.208;5.488;2022-07-03T02:40:26;21.00;88.90
25440;DHT22;13365;52.208;5.488;2022-07-03T02:42:58;20.90;88.70
25440;DHT22;13365;52.208;5.488;2022-07-03T02:48:12;20.80;89.30
25440;DHT22;13365;52.208;5.488;2022-07-03T02:50:41;20.80;89.40
25440;DHT22;13365;52.208;5.488;2022-07-03T02:55:42;20.80;90.00
25440;DHT22;13365;52.208;5.488;2022-07-03T03:00:57;20.70;90.00
25440;DHT22;13365;52.208;5.488;2022-07-03T03:03:26;20.80;90.40
25440;DHT22;13365;52.208;5.488;2022-07-03T03:05:52;20.80;90.10
25440;DHT22;13365;52.208;5.488;2022-07-03T03:10:52;20.80;90.10
25440;DHT22;13365;52.208;5.488;2022-07-03T03:13:22;20.80;90.10
25440;DHT22;13365;52.208;5.488;2022-07-03T03:15:57;20.70;90.10
25440;DHT22;13365;52.208;5.488;2022-07-03T03:18:24;20.70;90.30
25440;DHT22;13365;52.208;5.488;2022-07-03T03:20:52;20.80;90.20
25440;DHT22;13365;52.208;5.488;2022-07-03T03:25:46;20.70;90.80
25440;DHT22;13365;52.208;5.488;2022-07-03T03:28:12;20.70;90.80
25440;DHT22;13365;52.208;5.488;2022-07-03T03:30:38;20.60;91.00
25440;DHT22;13365;52.208;5.488;2022-07-03T03:33:06;20.70;91.10
25440;DHT22;13365;52.208;5.488;2022-07-03T03:35:35;20.70;91.30
25440;DHT22;13365;52.208;5.488;2022-07-03T03:38:01;20.90;91.30
25440;DHT22;13365;52.208;5.488;2022-07-03T03:40:26;20.80;91.20
25440;DHT22;13365;52.208;5.488;2022-07-03T03:42:52;20.90;91.40
25440;DHT22;13365;52.208;5.488;2022-07-03T03:45:17;20.90;91.30
25440;DHT22;13365;52.208;5.488;2022-07-03T03:47:43;20.90;91.30
25440;DHT22;13365;52.208;5.488;2022-07-03T03:50:08;20.90;91.50
25440;DHT22;13365;52.208;5.488;2022-07-03T03:52:34;20.90;91.60
25440;DHT22;13365;52.208;5.488;2022-07-03T03:54:59;21.10;91.60
25440;DHT22;13365;52.208;5.488;2022-07-03T03:57:25;21.20;91.60
25440;DHT22;13365;52.208;5.488;2022-07-03T03:59:50;21.20;91.50
25440;DHT22;13365;52.208;5.488;2022-07-03T04:02:16;21.20;91.30
25440;DHT22;13365;52.208;5.488;2022-07-03T04:04:42;21.30;91.10
25440;DHT22;13365;52.208;5.488;2022-07-03T04:07:07;21.30;90.90
25440;DHT22;13365;52.208;5.488;2022-07-03T04:09:32;21.30;90.80
25440;DHT22;13365;52.208;5.488;2022-07-03T04:11:58;21.30;90.80
25440;DHT22;13365;52.208;5.488;2022-07-03T04:14:24;21.30;90.80
25440;DHT22;13365;52.208;5.488;2022-07-03T04:16:49;21.20;90.70
25440;DHT22;13365;52.208;5.488;2022-07-03T04:19:15;21.30;90.80
25440;DHT22;13365;52.208;5.488;2022-07-03T04:21:40;21.20;90.90
25440;DHT22;13365;52.208;5.488;2022-07-03T04:24:06;21.20;91.00
25440;DHT22;13365;52.208;5.488;2022-07-03T04:26:31;21.20;91.00
25440;DHT22;13365;52.208;5.488;2022-07-03T04:28:57;21.20;91.20
25440;DHT22;13365;52.208;5.488;2022-07-03T04:31:22;21.40;91.30
25440;DHT22;13365;52.208;5.488;2022-07-03T04:33:48;21.40;91.40
25440;DHT22;13365;52.208;5.488;2022-07-03T04:36:13;21.60;91.50
25440;DHT22;13365;52.208;5.488;2022-07-03T04:38:39;21.60;91.30
25440;DHT22;13365;52.208;5.488;2022-07-03T04:41:04;21.60;91.40
25440;DHT22;13365;52.208;5.488;2022-07-03T04:43:30;21.80;91.60
25440;DHT22;13365;52.208;5.488;2022-07-03T04:45:55;21.90;91.40
25440;DHT22;13365;52.208;5.488;2022-07-03T04:48:21;22.10;91.10
25440;DHT22;13365;52.208;5.488;2022-07-03T04:50:46;22.10;91.00
25440;DHT22;13365;52.208;5.488;2022-07-03T04:53:12;22.30;90.90
25440;DHT22;13365;52.208;5.488;2022-07-03T04:55:37;22.40;91.00
25440;DHT22;13365;52.208;5.488;2022-07-03T04:58:03;22.40;90.80
25440;DHT22;13365;52.208;5.488;2022-07-03T05:00:28;22.40;90.80
25440;DHT22;13365;52.208;5.488;2022-07-03T05:02:54;22.40;90.80
25440;DHT22;13365;52.208;5.488;2022-07-03T05:05:19;22.60;90.50
25440;DHT22;13365;52.208;5.488;2022-07-03T05:07:45;22.70;90.60
25440;DHT22;13365;52.208;5.488;2022-07-03T05:10:10;22.80;90.20
25440;DHT22;13365;52.208;5.488;2022-07-03T05:12:35;22.80;90.30
25440;DHT22;13365;52.208;5.488;2022-07-03T05:15:01;22.90;90.40
25440;DHT22;13365;52.208;5.488;2022-07-03T05:17:26;23.00;90.10
25440;DHT22;13365;52.208;5.488;2022-07-03T05:19:52;23.20;89.70
25440;DHT22;13365;52.208;5.488;2022-07-03T05:22:37;23.40;88.90
25440;DHT22;13365;52.208;5.488;2022-07-03T05:25:03;23.40;89.00
25440;DHT22;13365;52.208;5.488;2022-07-03T05:27:29;23.50;89.20
25440;DHT22;13365;52.208;5.488;2022-07-03T05:29:54;23.60;89.50
25440;DHT22;13365;52.208;5.488;2022-07-03T05:32:19;23.80;89.70
25440;DHT22;13365;52.208;5.488;2022-07-03T05:34:45;23.80;88.70
25440;DHT22;13365;52.208;5.488;2022-07-03T05:37:10;24.00;88.60
25440;DHT22;13365;52.208;5.488;2022-07-03T05:39:36;23.90;86.40
25440;DHT22;13365;52.208;5.488;2022-07-03T05:42:03;24.00;87.40
25440;DHT22;13365;52.208;5.488;2022-07-03T05:44:29;24.10;87.10
25440;DHT22;13365;52.208;5.488;2022-07-03T05:46:54;24.00;85.80
25440;DHT22;13365;52.208;5.488;2022-07-03T05:49:20;24.10;84.00
25440;DHT22;13365;52.208;5.488;2022-07-03T05:51:45;24.00;83.10
25440;DHT22;13365;52.208;5.488;2022-07-03T05:54:11;24.00;83.20
25440;DHT22;13365;52.208;5.488;2022-07-03T05:56:36;24.20;83.10
25440;DHT22;13365;52.208;5.488;2022-07-03T05:59:02;24.10;82.40
25440;DHT22;13365;52.208;5.488;2022-07-03T06:01:27;24.00;82.20
25440;DHT22;13365;52.208;5.488;2022-07-03T06:03:53;23.80;81.80
25440;DHT22;13365;52.208;5.488;2022-07-03T06:06:18;23.80;82.70
25440;DHT22;13365;52.208;5.488;2022-07-03T06:08:44;23.70;83.30
25440;DHT22;13365;52.208;5.488;2022-07-03T06:11:09;23.80;83.90
25440;DHT22;13365;52.208;5.488;2022-07-03T06:13:34;23.70;83.00
25440;DHT22;13365;52.208;5.488;2022-07-03T06:16:00;23.80;83.70
25440;DHT22;13365;52.208;5.488;2022-07-03T06:18:25;23.80;83.70
25440;DHT22;13365;52.208;5.488;2022-07-03T06:20:51;23.90;82.90
25440;DHT22;13365;52.208;5.488;2022-07-03T06:23:16;23.90;83.50
25440;DHT22;13365;52.208;5.488;2022-07-03T06:25:44;23.90;82.40
25440;DHT22;13365;52.208;5.488;2022-07-03T06:28:09;23.70;84.10
25440;DHT22;13365;52.208;5.488;2022-07-03T06:30:35;23.80;83.90
25440;DHT22;13365;52.208;5.488;2022-07-03T06:33:00;23.90;83.50
25440;DHT22;13365;52.208;5.488;2022-07-03T06:35:26;23.80;83.70
25440;DHT22;13365;52.208;5.488;2022-07-03T06:37:51;23.70;84.60
25440;DHT22;13365;52.208;5.488;2022-07-03T06:40:17;23.50;84.60
25440;DHT22;13365;52.208;5.488;2022-07-03T06:42:42;23.70;85.30
25440;DHT22;13365;52.208;5.488;2022-07-03T06:45:08;23.70;85.00
25440;DHT22;13365;52.208;5.488;2022-07-03T06:47:37;23.90;85.30
25440;DHT22;13365;52.208;5.488;2022-07-03T06:50:03;23.80;84.00
25440;DHT22;13365;52.208;5.488;2022-07-03T06:52:29;23.40;84.80
25440;DHT22;13365;52.208;5.488;2022-07-03T06:54:54;23.50;86.00
25440;DHT22;13365;52.208;5.488;2022-07-03T06:57:20;23.60;85.40
25440;DHT22;13365;52.208;5.488;2022-07-03T06:59:45;23.70;85.70
25440;DHT22;13365;52.208;5.488;2022-07-03T07:02:11;23.70;85.30
25440;DHT22;13365;52.208;5.488;2022-07-03T07:04:36;23.80;86.30
25440;DHT22;13365;52.208;5.488;2022-07-03T07:07:02;24.00;85.60
25440;DHT22;13365;52.208;5.488;2022-07-03T07:09:27;24.20;86.20
25440;DHT22;13365;52.208;5.488;2022-07-03T07:11:53;24.40;85.20
25440;DHT22;13365;52.208;5.488;2022-07-03T07:14:18;24.50;84.80
25440;DHT22;13365;52.208;5.488;2022-07-03T07:16:44;24.40;85.30
25440;DHT22;13365;52.208;5.488;2022-07-03T07:19:09;24.40;84.00
25440;DHT22;13365;52.208;5.488;2022-07-03T07:21:35;24.50;84.00
25440;DHT22;13365;52.208;5.488;2022-07-03T07:24:00;24.50;85.40
25440;DHT22;13365;52.208;5.488;2022-07-03T07:26:25;24.60;84.70
25440;DHT22;13365;52.208;5.488;2022-07-03T07:28:51;24.90;84.80
25440;DHT22;13365;52.208;5.488;2022-07-03T07:31:16;25.10;84.60
25440;DHT22;13365;52.208;5.488;2022-07-03T07:33:42;25.30;83.60
25440;DHT22;13365;52.208;5.488;2022-07-03T07:36:07;25.70;81.30
25440;DHT22;13365;52.208;5.488;2022-07-03T07:38:33;25.80;82.20
25440;DHT22;13365;52.208;5.488;2022-07-03T07:40:58;26.10;80.40
25440;DHT22;13365;52.208;5.488;2022-07-03T07:43:24;26.40;79.50
25440;DHT22;13365;52.208;5.488;2022-07-03T07:45:49;26.70;77.70
25440;DHT22;13365;52.208;5.488;2022-07-03T07:48:15;26.90;75.70
25440;DHT22;13365;52.208;5.488;2022-07-03T07:50:40;26.90;74.90
25440;DHT22;13365;52.208;5.488;2022-07-03T07:53:06;27.10;74.50
25440;DHT22;13365;52.208;5.488;2022-07-03T07:55:31;27.30;71.80
25440;DHT22;13365;52.208;5.488;2022-07-03T07:57:57;27.40;70.70
25440;DHT22;13365;52.208;5.488;2022-07-03T08:00:22;27.10;68.50
25440;DHT22;13365;52.208;5.488;2022-07-03T08:02:48;26.90;70.30
25440;DHT22;13365;52.208;5.488;2022-07-03T08:05:32;26.90;72.80
25440;DHT22;13365;52.208;5.488;2022-07-03T08:10:33;26.70;71.80
25440;DHT22;13365;52.208;5.488;2022-07-03T08:12:58;26.70;72.20
25440;DHT22;13365;52.208;5.488;2022-07-03T08:15:24;26.80;73.10
25440;DHT22;13365;52.208;5.488;2022-07-03T08:17:49;27.10;73.90
25440;DHT22;13365;52.208;5.488;2022-07-03T08:20:15;27.20;72.20
25440;DHT22;13365;52.208;5.488;2022-07-03T08:22:40;27.40;72.50
25440;DHT22;13365;52.208;5.488;2022-07-03T08:25:06;27.70;73.20
25440;DHT22;13365;52.208;5.488;2022-07-03T08:27:31;28.00;70.90
25440;DHT22;13365;52.208;5.488;2022-07-03T08:29:57;28.40;70.90
25440;DHT22;13365;52.208;5.488;2022-07-03T08:32:22;28.70;68.90
25440;DHT22;13365;52.208;5.488;2022-07-03T08:34:47;28.60;68.00
25440;DHT22;13365;52.208;5.488;2022-07-03T08:37:13;28.60;67.80
25440;DHT22;13365;52.208;5.488;2022-07-03T08:39:38;28.40;65.50
25440;DHT22;13365;52.208;5.488;2022-07-03T08:42:04;28.10;65.80
25440;DHT22;13365;52.208;5.488;2022-07-03T08:44:30;28.00;66.90
25440;DHT22;13365;52.208;5.488;2022-07-03T08:46:56;27.80;66.70
25440;DHT22;13365;52.208;5.488;2022-07-03T08:49:24;27.80;65.80
25440;DHT22;13365;52.208;5.488;2022-07-03T08:51:50;27.70;67.90
25440;DHT22;13365;52.208;5.488;2022-07-03T08:54:17;27.80;67.30
25440;DHT22;13365;52.208;5.488;2022-07-03T08:56:42;27.80;68.10
25440;DHT22;13365;52.208;5.488;2022-07-03T08:59:08;27.70;68.20
25440;DHT22;13365;52.208;5.488;2022-07-03T09:01:34;27.80;67.40
25440;DHT22;13365;52.208;5.488;2022-07-03T09:03:59;27.90;67.60
25440;DHT22;13365;52.208;5.488;2022-07-03T09:06:25;27.60;67.50
25440;DHT22;13365;52.208;5.488;2022-07-03T09:08:51;27.70;68.20
25440;DHT22;13365;52.208;5.488;2022-07-03T09:11:17;28.00;67.90
25440;DHT22;13365;52.208;5.488;2022-07-03T09:13:42;28.20;66.80
25440;DHT22;13365;52.208;5.488;2022-07-03T09:16:16;28.40;67.10
25440;DHT22;13365;52.208;5.488;2022-07-03T09:18:44;29.00;67.00
25440;DHT22;13365;52.208;5.488;2022-07-03T09:21:10;29.60;66.90
25440;DHT22;13365;52.208;5.488;2022-07-03T09:23:36;30.30;66.10
25440;DHT22;13365;52.208;5.488;2022-07-03T09:26:03;30.10;65.20
25440;DHT22;13365;52.208;5.488;2022-07-03T09:28:42;30.40;66.20
25440;DHT22;13365;52.208;5.488;2022-07-03T09:31:08;30.60;65.20
25440;DHT22;13365;52.208;5.488;2022-07-03T09:33:34;31.10;65.80
25440;DHT22;13365;52.208;5.488;2022-07-03T09:36:00;31.30;64.00
25440;DHT22;13365;52.208;5.488;2022-07-03T09:38:25;31.70;60.90
25440;DHT22;13365;52.208;5.488;2022-07-03T09:40:54;31.80;61.60
25440;DHT22;13365;52.208;5.488;2022-07-03T09:43:24;31.90;63.30
25440;DHT22;13365;52.208;5.488;2022-07-03T09:46:00;31.90;61.00
25440;DHT22;13365;52.208;5.488;2022-07-03T09:48:29;31.80;62.70
25440;DHT22;13365;52.208;5.488;2022-07-03T09:51:14;31.70;62.80
25440;DHT22;13365;52.208;5.488;2022-07-03T09:53:51;31.60;59.10
25440;DHT22;13365;52.208;5.488;2022-07-03T09:56:17;31.30;61.00
25440;DHT22;13365;52.208;5.488;2022-07-03T09:59:02;31.00;60.50
25440;DHT22;13365;52.208;5.488;2022-07-03T10:01:28;30.60;60.20
25440;DHT22;13365;52.208;5.488;2022-07-03T10:03:53;30.10;62.00
25440;DHT22;13365;52.208;5.488;2022-07-03T10:06:19;29.70;62.30
25440;DHT22;13365;52.208;5.488;2022-07-03T10:08:44;29.10;63.10
25440;DHT22;13365;52.208;5.488;2022-07-03T10:11:11;28.70;63.80
25440;DHT22;13365;52.208;5.488;2022-07-03T10:13:37;28.60;65.40
25440;DHT22;13365;52.208;5.488;2022-07-03T10:16:04;28.50;66.20
25440;DHT22;13365;52.208;5.488;2022-07-03T10:18:30;28.30;66.00
25440;DHT22;13365;52.208;5.488;2022-07-03T10:20:59;28.20;65.80
25440;DHT22;13365;52.208;5.488;2022-07-03T10:23:25;28.40;68.00
25440;DHT22;13365;52.208;5.488;2022-07-03T10:25:51;28.40;66.80
25440;DHT22;13365;52.208;5.488;2022-07-03T10:28:18;28.60;69.00
25440;DHT22;13365;52.208;5.488;2022-07-03T10:30:45;28.80;69.10
25440;DHT22;13365;52.208;5.488;2022-07-03T10:33:11;29.30;67.70
25440;DHT22;13365;52.208;5.488;2022-07-03T10:35:37;29.20;66.20
25440;DHT22;13365;52.208;5.488;2022-07-03T10:43:22;29.30;65.40
25440;DHT22;13365;52.208;5.488;2022-07-03T10:46:11;29.20;66.50
25440;DHT22;13365;52.208;5.488;2022-07-03T10:57:03;28.00;67.30
25440;DHT22;13365;52.208;5.488;2022-07-03T11:25:39;26.60;72.50
25440;DHT22;13365;52.208;5.488;2022-07-03T11:28:05;26.30;73.90
25440;DHT22;13365;52.208;5.488;2022-07-03T11:30:30;25.50;76.20
25440;DHT22;13365;52.208;5.488;2022-07-03T11:32:57;24.50;78.00
25440;DHT22;13365;52.208;5.488;2022-07-03T11:38:07;23.40;85.80
25440;DHT22;13365;52.208;5.488;2022-07-03T11:40:32;23.00;89.20
25440;DHT22;13365;52.208;5.488;2022-07-03T11:43:01;22.80;90.80
25440;DHT22;13365;52.208;5.488;2022-07-03T11:45:29;23.00;91.60
25440;DHT22;13365;52.208;5.488;2022-07-03T11:47:55;23.00;91.80
25440;DHT22;13365;52.208;5.488;2022-07-03T11:50:20;22.90;91.00
25440;DHT22;13365;52.208;5.488;2022-07-03T11:52:46;23.20;91.40
25440;DHT22;13365;52.208;5.488;2022-07-03T11:55:11;23.20;91.40
25440;DHT22;13365;52.208;5.488;2022-07-03T11:57:37;23.50;91.60
25440;DHT22;13365;52.208;5.488;2022-07-03T12:00:03;24.00;90.70
25440;DHT22;13365;52.208;5.488;2022-07-03T12:02:29;24.20;90.20
25440;DHT22;13365;52.208;5.488;2022-07-03T12:04:54;24.60;89.30
25440;DHT22;13365;52.208;5.488;2022-07-03T12:07:20;25.10;86.10
25440;DHT22;13365;52.208;5.488;2022-07-03T12:09:49;25.70;84.60
25440;DHT22;13365;52.208;5.488;2022-07-03T12:12:14;26.20;81.90
25440;DHT22;13365;52.208;5.488;2022-07-03T12:17:10;26.90;79.20
25440;DHT22;13365;52.208;5.488;2022-07-03T12:19:36;27.40;77.50
25440;DHT22;13365;52.208;5.488;2022-07-03T12:22:02;27.50;75.70
25440;DHT22;13365;52.208;5.488;2022-07-03T12:24:28;27.40;75.80
25440;DHT22;13365;52.208;5.488;2022-07-03T12:26:53;27.30;76.10
25440;DHT22;13365;52.208;5.488;2022-07-03T12:29:19;27.40;76.50
25440;DHT22;13365;52.208;5.488;2022-07-03T12:31:45;27.30;74.50
25440;DHT22;13365;52.208;5.488;2022-07-03T12:34:12;27.50;75.00
25440;DHT22;13365;52.208;5.488;2022-07-03T12:36:38;27.70;73.80
25440;DHT22;13365;52.208;5.488;2022-07-03T12:39:04;27.60;73.90
25440;DHT22;13365;52.208;5.488;2022-07-03T12:41:29;27.60;72.80
25440;DHT22;13365;52.208;5.488;2022-07-03T12:43:55;27.60;73.80
25440;DHT22;13365;52.208;5.488;2022-07-03T12:46:26;27.40;73.60
25440;DHT22;13365;52.208;5.488;2022-07-03T12:48:56;27.10;74.70
25440;DHT22;13365;52.208;5.488;2022-07-03T12:54:06;26.20;77.70
25440;DHT22;13365;52.208;5.488;2022-07-03T12:56:31;25.30;83.50
25440;DHT22;13365;52.208;5.488;2022-07-03T12:58:57;24.30;88.70
25440;DHT22;13365;52.208;5.488;2022-07-03T13:01:41;23.60;91.40
25440;DHT22;13365;52.208;5.488;2022-07-03T13:04:07;23.00;93.20
25440;DHT22;13365;52.208;5.488;2022-07-03T13:06:33;22.90;94.90
25440;DHT22;13365;52.208;5.488;2022-07-03T13:09:03;22.70;96.50
25440;DHT22;13365;52.208;5.488;2022-07-03T13:14:11;22.80;99.50
25440;DHT22;13365;52.208;5.488;2022-07-03T13:16:38;23.00;96.70
25440;DHT22;13365;52.208;5.488;2022-07-03T13:19:05;23.20;96.40
25440;DHT22;13365;52.208;5.488;2022-07-03T13:21:31;23.10;96.00
25440;DHT22;13365;52.208;5.488;2022-07-03T13:23:56;23.50;95.30
25440;DHT22;13365;52.208;5.488;2022-07-03T13:26:22;23.70;93.80
25440;DHT22;13365;52.208;5.488;2022-07-03T13:28:48;23.60;93.80
25440;DHT22;13365;52.208;5.488;2022-07-03T13:31:13;23.90;93.30
25440;DHT22;13365;52.208;5.488;2022-07-03T13:33:39;23.80;93.90
25440;DHT22;13365;52.208;5.488;2022-07-03T13:36:04;24.00;93.00
25440;DHT22;13365;52.208;5.488;2022-07-03T13:38:30;24.10;91.90
25440;DHT22;13365;52.208;5.488;2022-07-03T13:40:55;24.00;89.70
25440;DHT22;13365;52.208;5.488;2022-07-03T13:43:21;24.10;91.30
25440;DHT22;13365;52.208;5.488;2022-07-03T13:45:46;24.20;91.70
25440;DHT22;13365;52.208;5.488;2022-07-03T13:48:11;24.50;90.70
25440;DHT22;13365;52.208;5.488;2022-07-03T13:50:37;24.60;88.70
25440;DHT22;13365;52.208;5.488;2022-07-03T13:53:03;24.50;88.20
25440;DHT22;13365;52.208;5.488;2022-07-03T13:55:28;24.30;88.30
25440;DHT22;13365;52.208;5.488;2022-07-03T13:57:54;24.40;88.20
25440;DHT22;13365;52.208;5.488;2022-07-03T14:00:19;24.20;88.60
25440;DHT22;13365;52.208;5.488;2022-07-03T14:02:45;24.10;87.40
25440;DHT22;13365;52.208;5.488;2022-07-03T14:05:10;24.00;86.20
25440;DHT22;13365;52.208;5.488;2022-07-03T14:07:36;23.90;87.10
25440;DHT22;13365;52.208;5.488;2022-07-03T14:10:02;23.90;88.00
25440;DHT22;13365;52.208;5.488;2022-07-03T14:12:27;23.80;88.20
25440;DHT22;13365;52.208;5.488;2022-07-03T14:14:53;23.70;88.00
25440;DHT22;13365;52.208;5.488;2022-07-03T14:17:18;23.70;88.20
25440;DHT22;13365;52.208;5.488;2022-07-03T14:19:44;23.70;84.80
25440;DHT22;13365;52.208;5.488;2022-07-03T14:22:09;23.80;85.10
25440;DHT22;13365;52.208;5.488;2022-07-03T14:24:35;23.90;84.60
25440;DHT22;13365;52.208;5.488;2022-07-03T14:27:00;24.00;83.20
25440;DHT22;13365;52.208;5.488;2022-07-03T14:29:44;24.00;83.10
25440;DHT22;13365;52.208;5.488;2022-07-03T14:32:29;24.20;82.00
25440;DHT22;13365;52.208;5.488;2022-07-03T14:34:54;24.20;80.80
25440;DHT22;13365;52.208;5.488;2022-07-03T14:37:20;24.20;82.40
25440;DHT22;13365;52.208;5.488;2022-07-03T14:39:46;24.20;82.90
25440;DHT22;13365;52.208;5.488;2022-07-03T14:42:12;24.40;81.40
25440;DHT22;13365;52.208;5.488;2022-07-03T14:44:37;24.20;80.10
25440;DHT22;13365;52.208;5.488;2022-07-03T14:47:03;24.40;80.70
25440;DHT22;13365;52.208;5.488;2022-07-03T14:49:28;24.30;81.60
25440;DHT22;13365;52.208;5.488;2022-07-03T14:51:54;24.30;81.00
25440;DHT22;13365;52.208;5.488;2022-07-03T14:54:19;24.20;82.60
25440;DHT22;13365;52.208;5.488;2022-07-03T14:56:55;24.10;82.10
25440;DHT22;13365;52.208;5.488;2022-07-03T14:59:41;23.80;81.60
25440;DHT22;13365;52.208;5.488;2022-07-03T15:02:16;23.90;82.70
25440;DHT22;13365;52.208;5.488;2022-07-03T15:07:15;24.30;85.20
25440;DHT22;13365;52.208;5.488;2022-07-03T15:09:44;24.90;82.60
25440;DHT22;13365;52.208;5.488;2022-07-03T15:12:12;25.30;78.80
25440;DHT22;13365;52.208;5.488;2022-07-03T15:14:53;25.80;77.50
25440;DHT22;13365;52.208;5.488;2022-07-03T15:17:20;26.00;75.00
25440;DHT22;13365;52.208;5.488;2022-07-03T15:19:46;26.20;76.40
25440;DHT22;13365;52.208;5.488;2022-07-03T15:22:12;26.50;75.00
25440;DHT22;13365;52.208;5.488;2022-07-03T15:24:38;26.80;72.60
25440;DHT22;13365;52.208;5.488;2022-07-03T15:27:05;26.90;70.70
25440;DHT22;13365;52.208;5.488;2022-07-03T15:29:31;26.70;70.30
25440;DHT22;13365;52.208;5.488;2022-07-03T15:32:00;26.70;70.10
25440;DHT22;13365;52.208;5.488;2022-07-03T15:34:26;26.60;69.30
25440;DHT22;13365;52.208;5.488;2022-07-03T15:36:56;26.70;71.50
25440;DHT22;13365;52.208;5.488;2022-07-03T15:39:25;27.00;71.10
25440;DHT22;13365;52.208;5.488;2022-07-03T15:42:00;27.10;70.10
25440;DHT22;13365;52.208;5.488;2022-07-03T15:44:31;26.90;68.50
25440;DHT22;13365;52.208;5.488;2022-07-03T15:47:03;26.40;69.30
25440;DHT22;13365;52.208;5.488;2022-07-03T15:49:35;26.30;71.10
25440;DHT22;13365;52.208;5.488;2022-07-03T15:54:34;25.80;72.80
25440;DHT22;13365;52.208;5.488;2022-07-03T15:57:02;25.70;71.90
25440;DHT22;13365;52.208;5.488;2022-07-03T15:59:29;25.80;72.80
25440;DHT22;13365;52.208;5.488;2022-07-03T16:01:56;25.90;72.90
25440;DHT22;13365;52.208;5.488;2022-07-03T16:04:42;26.10;73.10
25440;DHT22;13365;52.208;5.488;2022-07-03T16:07:12;26.20;70.90
25440;DHT22;13365;52.208;5.488;2022-07-03T16:09:39;26.30;71.00
25440;DHT22;13365;52.208;5.488;2022-07-03T16:12:05;26.50;71.10
25440;DHT22;13365;52.208;5.488;2022-07-03T16:14:31;26.60;70.40
25440;DHT22;13365;52.208;5.488;2022-07-03T16:16:59;26.90;68.50
25440;DHT22;13365;52.208;5.488;2022-07-03T16:19:27;27.30;68.80
25440;DHT22;13365;52.208;5.488;2022-07-03T16:21:53;27.70;65.90
25440;DHT22;13365;52.208;5.488;2022-07-03T16:24:22;27.80;64.70
25440;DHT22;13365;52.208;5.488;2022-07-03T16:26:47;27.50;63.50
25440;DHT22;13365;52.208;5.488;2022-07-03T16:29:14;27.20;64.40
25440;DHT22;13365;52.208;5.488;2022-07-03T16:31:40;26.60;66.10
25440;DHT22;13365;52.208;5.488;2022-07-03T16:34:14;26.40;67.40
25440;DHT22;13365;52.208;5.488;2022-07-03T16:36:41;26.30;68.40
25440;DHT22;13365;52.208;5.488;2022-07-03T16:39:09;26.20;68.20
25440;DHT22;13365;52.208;5.488;2022-07-03T16:41:35;26.30;67.90
25440;DHT22;13365;52.208;5.488;2022-07-03T16:44:02;26.30;65.80
25440;DHT22;13365;52.208;5.488;2022-07-03T16:46:28;26.40;64.70
25440;DHT22;13365;52.208;5.488;2022-07-03T16:48:54;26.70;67.00
25440;DHT22;13365;52.208;5.488;2022-07-03T16:51:22;26.60;66.20
25440;DHT22;13365;52.208;5.488;2022-07-03T16:53:48;26.60;68.30